createdAt,value
2022-09-23T00:01:09.490Z,1.95
2022-09-23T00:03:38.439Z,2.10
2022-09-23T00:06:11.293Z,1.85
2022-09-23T00:08:39.111Z,2.28
2022-09-23T00:11:08.626Z,4.78
2022-09-23T00:13:36.906Z,2.85
2022-09-23T00:16:24.822Z,2.05
2022-09-23T00:18:51.429Z,2.20
2022-09-23T00:21:19.880Z,2.03
2022-09-23T00:23:46.534Z,2.33
2022-09-23T00:26:15.905Z,3.03
2022-09-23T00:28:42.827Z,2.28
2022-09-23T00:31:12.631Z,2.55
2022-09-23T00:33:40.746Z,3.70
2022-09-23T00:36:15.715Z,2.00
2022-09-23T00:38:43.946Z,2.33
2022-09-23T00:41:11.575Z,1.90
2022-09-23T00:43:43.947Z,2.95
2022-09-23T00:46:16.702Z,3.20
2022-09-23T00:48:44.842Z,2.83
2022-09-23T00:51:17.948Z,3.25
2022-09-23T00:53:47.471Z,3.30
2022-09-23T00:56:15.403Z,2.30
2022-09-23T00:58:44.576Z,2.40
2022-09-23T01:01:14.097Z,1.98
2022-09-23T01:03:44.568Z,2.33
2022-09-23T01:06:12.107Z,4.85
2022-09-23T01:08:39.988Z,2.05
2022-09-23T01:11:18.851Z,2.17
2022-09-23T01:14:01.923Z,2.50
2022-09-23T01:16:43.750Z,2.22
2022-09-23T01:19:40.550Z,2.03
2022-09-23T01:22:14.307Z,2.17
2022-09-23T01:24:48.114Z,2.28
2022-09-23T01:27:27.774Z,2.15
2022-09-23T01:30:16.880Z,2.03
2022-09-23T01:33:00.266Z,3.25
2022-09-23T01:35:35.338Z,8.02
2022-09-23T01:38:07.790Z,4.50
2022-09-23T01:40:40.309Z,2.20
2022-09-23T01:43:15.791Z,2.63
2022-09-23T01:45:46.410Z,2.10
2022-09-23T01:48:22.033Z,2.28
2022-09-23T01:51:00.573Z,2.00
2022-09-23T01:53:39.144Z,2.28
2022-09-23T01:56:12.557Z,2.13
2022-09-23T01:59:18.260Z,2.50
2022-09-23T02:01:52.301Z,2.20
2022-09-23T02:04:31.023Z,2.30
2022-09-23T02:07:10.302Z,1.92
2022-09-23T02:09:42.616Z,2.45
2022-09-23T02:12:15.617Z,2.22
2022-09-23T02:15:06.139Z,2.58
2022-09-23T02:17:43.900Z,2.15
2022-09-23T02:20:15.857Z,2.40
2022-09-23T02:23:10.151Z,2.40
2022-09-23T02:25:55.200Z,2.78
2022-09-23T02:28:37.803Z,2.03
2022-09-23T02:31:21.387Z,2.63
2022-09-23T02:34:03.223Z,2.65
2022-09-23T02:36:40.433Z,2.83
2022-09-23T02:39:12.142Z,3.20
2022-09-23T02:41:53.570Z,2.67
2022-09-23T02:44:20.798Z,2.67
2022-09-23T02:46:47.886Z,2.75
2022-09-23T02:49:20.373Z,2.40
2022-09-23T02:51:47.173Z,2.92
2022-09-23T02:54:18.422Z,2.70
2022-09-23T02:56:45.078Z,2.50
2022-09-23T02:59:13.020Z,3.05
2022-09-23T03:01:58.559Z,2.70
2022-09-23T03:07:17.135Z,2.90
2022-09-23T03:10:00.704Z,2.63
2022-09-23T03:12:52.896Z,2.70
2022-09-23T03:15:35.533Z,2.60
2022-09-23T03:18:08.271Z,2.30
2022-09-23T03:20:58.421Z,2.40
2022-09-23T03:23:34.627Z,2.80
2022-09-23T03:26:08.127Z,2.80
2022-09-23T03:28:40.444Z,2.65
2022-09-23T03:31:06.998Z,2.65
2022-09-23T03:33:34.645Z,2.65
2022-09-23T03:36:25.902Z,2.95
2022-09-23T03:38:59.481Z,2.78
2022-09-23T03:41:38.876Z,3.50
2022-09-23T03:44:08.166Z,2.50
2022-09-23T03:46:36.143Z,3.08
2022-09-23T03:49:29.947Z,2.60
2022-09-23T03:51:56.622Z,2.50
2022-09-23T03:54:23.164Z,2.92
2022-09-23T03:56:49.812Z,2.95
2022-09-23T03:59:16.846Z,2.60
2022-09-23T04:01:43.969Z,2.55
2022-09-23T04:04:10.580Z,2.42
2022-09-23T04:06:37.207Z,3.05
2022-09-23T04:09:03.975Z,3.00
2022-09-23T04:11:30.733Z,3.50
2022-09-23T04:13:57.318Z,3.08
2022-09-23T04:16:24.912Z,2.50
2022-09-23T04:18:51.898Z,3.00
2022-09-23T04:21:18.498Z,4.25
2022-09-23T04:23:46.496Z,2.55
2022-09-23T04:26:13.551Z,2.75
2022-09-23T04:28:40.251Z,3.03
2022-09-23T04:31:08.251Z,3.03
2022-09-23T04:33:35.030Z,2.88
2022-09-23T04:36:02.103Z,2.35
2022-09-23T04:38:28.658Z,2.88
2022-09-23T04:40:55.176Z,2.80
2022-09-23T04:43:23.445Z,2.67
2022-09-23T04:46:06.929Z,2.45
2022-09-23T04:48:33.717Z,2.47
2022-09-23T04:51:05.236Z,2.58
2022-09-23T04:53:32.254Z,3.33
2022-09-23T04:56:07.283Z,3.03
2022-09-23T04:58:34.595Z,2.60
2022-09-23T05:01:27.252Z,2.60
2022-09-23T05:04:01.909Z,2.40
2022-09-23T05:06:30.078Z,1.75
2022-09-23T05:08:58.479Z,2.75
2022-09-23T05:11:25.654Z,2.53
2022-09-23T05:13:54.119Z,2.20
2022-09-23T05:16:23.326Z,3.10
2022-09-23T05:18:50.927Z,2.80
2022-09-23T05:21:20.404Z,2.35
2022-09-23T05:23:49.304Z,3.17
2022-09-23T05:26:16.323Z,2.90
2022-09-23T05:28:42.975Z,2.45
2022-09-23T05:31:15.859Z,2.15
2022-09-23T05:33:53.768Z,2.80
2022-09-23T05:36:21.568Z,2.45
2022-09-23T05:38:52.661Z,2.30
2022-09-23T05:41:23.140Z,2.28
2022-09-23T05:43:51.801Z,2.00
2022-09-23T05:46:20.530Z,2.22
2022-09-23T05:48:47.609Z,2.67
2022-09-23T05:51:17.373Z,2.15
2022-09-23T05:53:45.535Z,2.40
2022-09-23T05:56:13.711Z,2.00
2022-09-23T05:58:40.743Z,2.40
2022-09-23T06:01:18.361Z,2.22
2022-09-23T06:03:49.204Z,2.30
2022-09-23T06:06:20.535Z,2.10
2022-09-23T06:08:47.888Z,2.42
2022-09-23T06:11:15.079Z,1.90
2022-09-23T06:13:41.967Z,2.30
2022-09-23T06:16:11.679Z,2.63
2022-09-23T06:18:40.543Z,2.75
2022-09-23T06:21:08.068Z,2.13
2022-09-23T06:23:37.413Z,2.30
2022-09-23T06:26:06.842Z,1.83
2022-09-23T06:28:35.361Z,2.13
2022-09-23T06:31:06.064Z,2.08
2022-09-23T06:33:37.262Z,1.80
2022-09-23T06:36:06.366Z,2.13
2022-09-23T06:38:34.245Z,2.08
2022-09-23T06:41:02.510Z,2.45
2022-09-23T06:43:30.018Z,1.88
2022-09-23T06:46:01.344Z,2.33
2022-09-23T06:48:28.763Z,2.50
2022-09-23T06:50:59.205Z,1.90
2022-09-23T06:53:25.840Z,2.15
2022-09-23T06:56:00.483Z,2.45
2022-09-23T06:58:27.681Z,2.10
2022-09-23T07:00:55.172Z,2.05
2022-09-23T07:03:22.325Z,1.92
2022-09-23T07:05:48.834Z,2.00
2022-09-23T07:08:15.680Z,2.10
2022-09-23T07:10:42.212Z,2.72
2022-09-23T07:13:11.888Z,2.22
2022-09-23T07:15:40.762Z,2.35
2022-09-23T07:18:07.311Z,2.20
2022-09-23T07:20:33.780Z,1.80
2022-09-23T07:23:00.515Z,1.85
2022-09-23T07:25:27.006Z,2.50
2022-09-23T07:27:56.293Z,2.10
2022-09-23T07:30:25.353Z,2.00
2022-09-23T07:32:53.263Z,2.10
2022-09-23T07:35:19.881Z,2.00
2022-09-23T07:37:46.399Z,1.88
2022-09-23T07:40:13.030Z,2.25
2022-09-23T07:42:40.976Z,2.10
2022-09-23T07:45:09.090Z,2.05
2022-09-23T07:47:36.025Z,1.50
2022-09-23T07:50:02.607Z,2.22
2022-09-23T07:52:29.141Z,1.70
2022-09-23T07:54:55.645Z,2.30
2022-09-23T07:57:22.236Z,1.90
2022-09-23T07:59:48.755Z,2.00
2022-09-23T08:02:15.535Z,2.08
2022-09-23T08:04:42.202Z,2.47
2022-09-23T08:07:09.386Z,2.15
2022-09-23T08:09:41.823Z,2.30
2022-09-23T08:12:13.965Z,1.83
2022-09-23T08:14:42.801Z,1.98
2022-09-23T08:17:09.551Z,2.00
2022-09-23T08:19:36.051Z,1.92
2022-09-23T08:22:02.616Z,1.80
2022-09-23T08:24:30.292Z,2.55
2022-09-23T08:26:57.326Z,1.50
2022-09-23T08:29:25.848Z,1.77
2022-09-23T08:31:53.528Z,1.88
2022-09-23T08:34:21.484Z,1.88
2022-09-23T08:36:48.419Z,2.00
2022-09-23T08:39:17.227Z,2.40
2022-09-23T08:42:03.099Z,2.33
2022-09-23T08:44:51.170Z,1.48
2022-09-23T08:47:23.818Z,1.60
2022-09-23T08:50:20.842Z,1.65
2022-09-23T08:53:00.978Z,1.70
2022-09-23T08:55:40.256Z,1.85
2022-09-23T08:58:29.697Z,1.58
2022-09-23T09:01:05.282Z,1.63
2022-09-23T09:03:47.960Z,1.70
2022-09-23T09:06:21.456Z,1.83
2022-09-23T09:08:55.847Z,1.85
2022-09-23T09:11:29.138Z,1.63
2022-09-23T09:14:34.941Z,1.40
2022-09-23T09:17:07.994Z,1.90
2022-09-23T09:20:05.003Z,2.10
2022-09-23T09:22:50.974Z,1.63
2022-09-23T09:25:36.032Z,1.65
2022-09-23T09:28:11.256Z,1.55
2022-09-23T09:30:38.417Z,1.60
2022-09-23T09:33:13.151Z,1.60
2022-09-23T09:35:53.547Z,1.70
2022-09-23T09:38:22.074Z,1.33
2022-09-23T09:40:48.925Z,2.00
2022-09-23T09:43:23.270Z,1.88
2022-09-23T09:45:57.924Z,2.03
2022-09-23T09:48:54.041Z,1.30
2022-09-23T09:51:22.814Z,1.38
2022-09-23T09:53:52.123Z,1.95
2022-09-23T09:56:27.285Z,1.70
2022-09-23T09:59:18.439Z,1.33
2022-09-23T10:01:46.408Z,1.40
2022-09-23T10:04:35.078Z,1.30
2022-09-23T10:07:15.946Z,1.65
2022-09-23T10:09:50.739Z,2.00
2022-09-23T10:12:18.819Z,1.60
2022-09-23T10:14:50.649Z,1.20
2022-09-23T10:17:24.208Z,1.80
2022-09-23T10:20:00.280Z,1.90
2022-09-23T10:22:33.125Z,1.52
2022-09-23T10:25:08.400Z,1.50
2022-09-23T10:27:36.480Z,1.58
2022-09-23T10:30:27.574Z,1.52
2022-09-23T10:32:56.919Z,1.38
2022-09-23T10:35:28.251Z,2.92
2022-09-23T10:37:56.607Z,1.90
2022-09-23T10:40:47.805Z,1.65
2022-09-23T10:44:05.226Z,2.22
2022-09-23T10:46:44.913Z,1.63
2022-09-23T10:49:31.108Z,1.65
2022-09-23T10:52:00.474Z,1.83
2022-09-23T10:54:38.561Z,1.52
2022-09-23T10:57:40.737Z,1.40
2022-09-23T11:00:28.987Z,1.52
2022-09-23T11:03:09.371Z,1.80
2022-09-23T11:06:06.119Z,1.40
2022-09-23T11:08:51.500Z,1.70
2022-09-23T11:14:01.101Z,2.13
2022-09-23T11:16:46.374Z,1.60
2022-09-23T11:21:47.925Z,1.27
2022-09-23T11:24:50.120Z,1.17
2022-09-23T11:27:38.092Z,1.10
2022-09-23T11:30:09.910Z,1.20
2022-09-23T11:33:04.542Z,1.27
2022-09-23T11:35:41.791Z,1.48
2022-09-23T11:38:12.215Z,1.10
2022-09-23T11:40:45.598Z,1.42
2022-09-23T11:43:23.499Z,1.40
2022-09-23T11:46:00.745Z,0.95
2022-09-23T11:48:43.012Z,0.93
2022-09-23T11:51:23.388Z,0.90
2022-09-23T11:53:59.799Z,0.82
2022-09-23T11:56:41.036Z,1.13
2022-09-23T11:59:15.941Z,1.17
2022-09-23T12:01:49.796Z,1.33
2022-09-23T12:04:36.864Z,0.82
2022-09-23T12:07:10.186Z,1.15
2022-09-23T12:09:58.595Z,0.73
2022-09-23T12:12:34.924Z,1.05
2022-09-23T12:15:40.548Z,0.68
2022-09-23T12:21:49.211Z,0.82
2022-09-23T12:24:53.793Z,0.93
2022-09-23T12:27:45.981Z,0.77
2022-09-23T12:30:17.902Z,0.82
2022-09-23T12:32:44.971Z,0.80
2022-09-23T12:35:24.672Z,0.50
2022-09-23T12:37:52.419Z,0.88
2022-09-23T12:40:44.040Z,1.20
2022-09-23T12:43:31.026Z,0.85
2022-09-23T12:46:17.269Z,1.02
2022-09-23T12:48:57.940Z,1.05
2022-09-23T12:51:26.453Z,1.10
2022-09-23T12:54:06.175Z,1.25
2022-09-23T12:56:42.499Z,1.10
2022-09-23T12:59:29.146Z,1.20
2022-09-23T13:01:56.797Z,1.35
2022-09-23T13:04:50.085Z,1.10
2022-09-23T13:07:22.873Z,1.58
2022-09-23T13:09:52.673Z,1.27
2022-09-23T13:12:32.120Z,0.98
2022-09-23T13:15:03.626Z,1.10
2022-09-23T13:17:36.227Z,1.05
2022-09-23T13:20:21.090Z,1.50
2022-09-23T13:22:51.884Z,0.90
2022-09-23T13:25:43.008Z,1.25
2022-09-23T13:28:53.343Z,1.00
2022-09-23T13:31:21.276Z,1.02
2022-09-23T13:33:54.173Z,1.00
2022-09-23T13:36:21.233Z,1.05
2022-09-23T13:38:48.354Z,0.90
2022-09-23T13:41:21.984Z,0.82
2022-09-23T13:43:58.627Z,1.02
2022-09-23T13:46:47.556Z,1.00
2022-09-23T13:49:26.780Z,1.65
2022-09-23T13:51:55.186Z,0.90
2022-09-23T13:54:45.862Z,1.30
2022-09-23T13:57:30.325Z,1.40
2022-09-23T14:00:18.218Z,1.25
2022-09-23T14:02:46.979Z,1.45
2022-09-23T14:05:21.671Z,0.90
2022-09-23T14:07:50.211Z,1.10
2022-09-23T14:10:21.662Z,1.15
2022-09-23T14:12:50.493Z,0.70
2022-09-23T14:15:19.617Z,0.85
2022-09-23T14:17:52.475Z,0.90
2022-09-23T14:20:22.174Z,0.90
2022-09-23T14:22:48.787Z,1.02
2022-09-23T14:25:17.411Z,1.10
2022-09-23T14:27:46.831Z,0.98
2022-09-23T14:30:20.549Z,0.88
2022-09-23T14:32:50.034Z,1.00
2022-09-23T14:35:27.617Z,0.88
2022-09-23T14:38:16.663Z,1.13
2022-09-23T14:41:14.653Z,1.05
2022-09-23T14:43:49.352Z,0.70
2022-09-23T14:46:21.450Z,1.10
2022-09-23T14:49:11.291Z,0.98
2022-09-23T14:51:45.134Z,1.02
2022-09-23T14:54:33.103Z,1.25
2022-09-23T14:57:01.138Z,0.57
2022-09-23T14:59:33.306Z,0.93
2022-09-23T15:01:59.912Z,1.45
2022-09-23T15:04:27.625Z,0.90
2022-09-23T15:07:02.474Z,0.95
2022-09-23T15:09:31.445Z,1.20
2022-09-23T15:12:05.589Z,1.10
2022-09-23T15:14:40.717Z,1.05
2022-09-23T15:17:31.875Z,0.90
2022-09-23T15:20:05.600Z,1.05
2022-09-23T15:22:32.495Z,1.85
2022-09-23T15:25:16.664Z,0.80
2022-09-23T15:27:56.540Z,1.10
2022-09-23T15:30:23.699Z,1.00
2022-09-23T15:32:50.511Z,1.23
2022-09-23T15:35:20.052Z,1.10
2022-09-23T15:37:48.806Z,1.00
2022-09-23T15:40:34.698Z,1.23
2022-09-23T15:43:20.575Z,1.23
2022-09-23T15:45:55.880Z,1.20
2022-09-23T15:48:28.854Z,1.23
2022-09-23T15:50:55.773Z,2.22
2022-09-23T15:53:24.556Z,1.63
2022-09-23T15:55:51.754Z,1.38
2022-09-23T15:58:20.614Z,1.17
2022-09-23T16:00:56.083Z,1.75
2022-09-23T16:03:28.520Z,2.00
2022-09-23T16:06:00.161Z,1.90
2022-09-23T16:08:27.478Z,1.73
2022-09-23T16:10:55.108Z,1.63
2022-09-23T16:13:21.997Z,1.98
2022-09-23T16:15:48.579Z,1.40
2022-09-23T16:18:15.154Z,1.98
2022-09-23T16:20:46.453Z,1.83
2022-09-23T16:23:34.861Z,1.85
2022-09-23T16:26:08.111Z,1.77
2022-09-23T16:28:34.796Z,1.60
2022-09-23T16:31:01.331Z,1.90
2022-09-23T16:33:27.877Z,1.98
2022-09-23T16:35:54.652Z,1.63
2022-09-23T16:38:21.214Z,1.63
2022-09-23T16:40:47.849Z,1.70
2022-09-23T16:43:14.563Z,1.63
2022-09-23T16:45:41.229Z,1.40
2022-09-23T16:48:07.825Z,1.98
2022-09-23T16:50:34.573Z,1.85
2022-09-23T16:53:01.364Z,1.48
2022-09-23T16:55:28.017Z,1.30
2022-09-23T16:57:55.516Z,1.52
2022-09-23T17:00:40.809Z,1.55
2022-09-23T17:03:25.843Z,1.50
2022-09-23T17:05:54.233Z,1.73
2022-09-23T17:08:20.747Z,2.28
2022-09-23T17:10:57.136Z,1.73
2022-09-23T17:13:25.479Z,2.00
2022-09-23T17:15:53.288Z,1.80
2022-09-23T17:18:20.788Z,1.85
2022-09-23T17:21:16.765Z,2.92
2022-09-23T17:26:09.920Z,1.73
2022-09-23T17:28:36.523Z,1.92
2022-09-23T17:31:05.102Z,1.77
2022-09-23T17:33:37.310Z,2.50
2022-09-23T17:36:09.129Z,1.80
2022-09-23T17:38:36.287Z,1.88
2022-09-23T17:41:02.897Z,2.00
2022-09-23T17:43:29.876Z,1.50
2022-09-23T17:46:00.915Z,1.95
2022-09-23T17:48:27.487Z,2.63
2022-09-23T17:50:58.477Z,3.20
2022-09-23T17:53:26.161Z,2.85
2022-09-23T17:56:19.369Z,2.63
2022-09-23T17:58:47.514Z,2.58
2022-09-23T18:01:25.670Z,2.75
2022-09-23T18:03:59.803Z,2.38
2022-09-23T18:06:28.959Z,2.20
2022-09-23T18:08:56.170Z,1.92
2022-09-23T18:11:25.208Z,2.10
2022-09-23T18:13:55.709Z,2.28
2022-09-23T18:16:25.779Z,2.10
2022-09-23T18:18:54.151Z,2.30
2022-09-23T18:21:21.979Z,2.75
2022-09-23T18:23:49.211Z,2.72
2022-09-23T18:26:17.615Z,2.60
2022-09-23T18:28:45.145Z,2.70
2022-09-23T18:31:12.421Z,2.10
2022-09-23T18:33:39.183Z,2.22
2022-09-23T18:36:06.472Z,2.53
2022-09-23T18:38:33.320Z,1.75
2022-09-23T18:41:00.467Z,2.33
2022-09-23T18:43:41.355Z,1.98
2022-09-23T18:46:21.553Z,2.22
2022-09-23T18:49:07.226Z,2.38
2022-09-23T18:54:03.410Z,3.03
2022-09-23T18:56:37.333Z,3.30
2022-09-23T18:59:06.371Z,2.83
2022-09-23T19:01:33.884Z,2.63
2022-09-23T19:04:04.919Z,2.53
2022-09-23T19:06:33.116Z,2.40
2022-09-23T19:08:59.672Z,2.30
2022-09-23T19:11:26.780Z,2.47
2022-09-23T19:14:00.395Z,2.33
2022-09-23T19:16:27.295Z,2.22
2022-09-23T19:18:54.429Z,1.90
2022-09-23T19:21:22.602Z,1.90
2022-09-23T19:23:51.997Z,2.50
2022-09-23T19:26:27.635Z,2.15
2022-09-23T19:28:56.355Z,2.10
2022-09-23T19:31:34.206Z,2.30
2022-09-23T19:34:04.571Z,1.73
2022-09-23T19:36:37.691Z,1.80
2022-09-23T19:39:07.269Z,1.90
2022-09-23T19:41:35.440Z,1.90
2022-09-23T19:44:03.602Z,2.08
2022-09-23T19:46:31.223Z,2.20
2022-09-23T19:48:58.724Z,2.47
2022-09-23T19:51:25.378Z,2.10
2022-09-23T19:53:52.655Z,2.08
2022-09-23T19:56:20.006Z,2.33
2022-09-23T19:58:55.663Z,2.38
2022-09-23T20:01:23.428Z,2.47
2022-09-23T20:03:50.180Z,2.70
2022-09-23T20:06:18.263Z,2.50
2022-09-23T20:08:46.073Z,2.35
2022-09-23T20:11:15.718Z,2.42
2022-09-23T20:13:44.266Z,2.67
2022-09-23T20:16:13.471Z,2.53
2022-09-23T20:18:41.291Z,2.60
2022-09-23T20:21:10.891Z,2.40
2022-09-23T20:23:37.518Z,2.17
2022-09-23T20:26:24.388Z,2.58
2022-09-23T20:28:50.932Z,2.50
2022-09-23T20:31:20.912Z,2.30
2022-09-23T20:33:58.412Z,2.95
2022-09-23T20:36:29.602Z,2.55
2022-09-23T20:39:02.173Z,2.63
2022-09-23T20:41:31.315Z,3.03
2022-09-23T20:44:02.348Z,2.70
2022-09-23T20:46:29.559Z,2.40
2022-09-23T20:48:56.943Z,2.55
2022-09-23T20:51:28.019Z,3.35
2022-09-23T20:53:54.691Z,2.55
2022-09-23T20:56:22.323Z,2.08
2022-09-23T20:58:50.442Z,2.50
2022-09-23T21:01:17.592Z,2.53
2022-09-23T21:03:46.187Z,2.70
2022-09-23T21:06:14.580Z,2.08
2022-09-23T21:08:42.502Z,2.30
2022-09-23T21:11:15.074Z,2.53
2022-09-23T21:13:50.333Z,1.83
2022-09-23T21:18:45.073Z,2.47
2022-09-23T21:21:14.058Z,2.25
2022-09-23T21:23:41.995Z,2.40
2022-09-23T21:26:13.919Z,2.60
2022-09-23T21:28:45.350Z,3.03
2022-09-23T21:31:23.702Z,2.15
2022-09-23T21:33:59.824Z,2.17
2022-09-23T21:36:28.805Z,2.72
2022-09-23T21:38:56.166Z,2.90
2022-09-23T21:41:23.728Z,2.38
2022-09-23T21:43:50.877Z,2.50
2022-09-23T21:46:20.333Z,2.88
2022-09-23T21:48:52.882Z,2.50
2022-09-23T21:51:23.236Z,3.00
2022-09-23T21:53:49.784Z,2.45
2022-09-23T21:56:23.711Z,2.78
2022-09-23T21:58:52.238Z,2.10
2022-09-23T22:01:21.875Z,2.60
2022-09-23T22:03:56.615Z,2.63
2022-09-23T22:06:27.825Z,2.50
2022-09-23T22:09:00.180Z,3.17
2022-09-23T22:11:48.040Z,2.13
2022-09-23T22:14:16.439Z,2.58
2022-09-23T22:16:43.670Z,2.40
2022-09-23T22:19:13.588Z,2.22
2022-09-23T22:21:42.508Z,2.38
2022-09-23T22:24:11.576Z,2.17
2022-09-23T22:26:43.254Z,2.60
2022-09-23T22:29:33.975Z,1.88
2022-09-23T22:32:21.008Z,2.20
2022-09-23T22:34:51.578Z,3.20
2022-09-23T22:37:27.471Z,2.75
2022-09-23T22:42:23.797Z,2.55
2022-09-23T22:44:51.152Z,2.47
2022-09-23T22:47:19.511Z,2.55
2022-09-23T22:49:46.755Z,2.30
2022-09-23T22:52:14.981Z,2.78
2022-09-23T22:54:42.040Z,2.60
2022-09-23T22:57:09.290Z,2.55
2022-09-23T22:59:37.463Z,2.70
2022-09-23T23:02:05.081Z,2.53
2022-09-23T23:04:31.869Z,2.58
2022-09-23T23:07:02.248Z,2.20
2022-09-23T23:09:28.813Z,2.47
2022-09-23T23:11:55.310Z,2.70
2022-09-23T23:14:21.948Z,2.90
2022-09-23T23:16:48.660Z,2.58
2022-09-23T23:19:17.277Z,2.92
2022-09-23T23:21:45.521Z,2.55
2022-09-23T23:24:19.062Z,2.90
2022-09-23T23:26:45.959Z,2.72
2022-09-23T23:29:14.054Z,2.85
2022-09-23T23:31:41.286Z,2.58
2022-09-23T23:34:11.917Z,2.65
2022-09-23T23:36:39.954Z,2.33
2022-09-23T23:39:06.544Z,2.50
2022-09-23T23:41:33.583Z,2.70
2022-09-23T23:44:01.186Z,2.63
2022-09-23T23:46:30.440Z,2.40
2022-09-23T23:48:57.623Z,2.40
2022-09-23T23:51:26.524Z,2.25
2022-09-23T23:53:54.055Z,2.25
2022-09-23T23:56:24.388Z,3.38
2022-09-23T23:58:55.825Z,2.60
